createdAt,value
2022-10-19T00:02:03.369Z,100.00
2022-10-19T00:04:30.979Z,100.00
2022-10-19T00:06:58.529Z,100.00
2022-10-19T00:09:27.434Z,100.00
2022-10-19T00:11:54.961Z,100.00
2022-10-19T00:14:24.658Z,100.00
2022-10-19T00:16:54.458Z,100.00
2022-10-19T00:19:26.403Z,100.00
2022-10-19T00:21:54.310Z,100.00
2022-10-19T00:24:22.370Z,100.00
2022-10-19T00:26:51.262Z,100.00
2022-10-19T00:29:18.889Z,100.00
2022-10-19T00:31:46.414Z,100.00
2022-10-19T00:34:13.938Z,100.00
2022-10-19T00:36:42.090Z,100.00
2022-10-19T00:39:12.639Z,100.00
2022-10-19T00:41:40.687Z,100.00
2022-10-19T00:44:41.706Z,100.00
2022-10-19T00:47:10.778Z,100.00
2022-10-19T00:49:43.334Z,100.00
2022-10-19T00:52:15.425Z,100.00
2022-10-19T00:54:44.802Z,100.00
2022-10-19T00:57:13.238Z,100.00
2022-10-19T00:59:42.358Z,100.00
2022-10-19T01:02:11.273Z,100.00
2022-10-19T01:04:41.366Z,100.00
2022-10-19T01:07:09.828Z,100.00
2022-10-19T01:09:37.418Z,100.00
2022-10-19T01:12:11.877Z,100.00
2022-10-19T01:14:55.654Z,100.00
2022-10-19T01:17:36.670Z,100.00
2022-10-19T01:20:41.246Z,100.00
2022-10-19T01:23:34.354Z,100.00
2022-10-19T01:26:15.072Z,100.00
2022-10-19T01:28:54.805Z,100.00
2022-10-19T01:31:28.618Z,100.00
2022-10-19T01:34:04.289Z,100.00
2022-10-19T01:36:40.092Z,100.00
2022-10-19T01:39:12.469Z,100.00
2022-10-19T01:41:48.793Z,100.00
2022-10-19T01:44:22.598Z,100.00
2022-10-19T01:46:56.830Z,100.00
2022-10-19T01:49:30.498Z,100.00
2022-10-19T01:52:02.297Z,100.00
2022-10-19T01:54:35.158Z,100.00
2022-10-19T01:57:06.973Z,100.00
2022-10-19T01:59:35.502Z,100.00
2022-10-19T02:02:05.801Z,100.00
2022-10-19T02:04:35.162Z,100.00
2022-10-19T02:07:04.582Z,100.00
2022-10-19T02:09:32.239Z,100.00
2022-10-19T02:12:04.549Z,100.00
2022-10-19T02:14:36.095Z,100.00
2022-10-19T02:17:09.079Z,100.00
2022-10-19T02:19:37.069Z,100.00
2022-10-19T02:22:05.279Z,100.00
2022-10-19T02:24:33.033Z,100.00
2022-10-19T02:27:01.725Z,100.00
2022-10-19T02:29:29.527Z,100.00
2022-10-19T02:31:57.150Z,100.00
2022-10-19T02:34:26.342Z,100.00
2022-10-19T02:36:54.401Z,100.00
2022-10-19T02:39:22.400Z,100.00
2022-10-19T02:41:54.019Z,100.00
2022-10-19T02:44:25.545Z,100.00
2022-10-19T02:46:59.504Z,100.00
2022-10-19T02:49:29.971Z,100.00
2022-10-19T02:52:00.470Z,100.00
2022-10-19T02:54:29.048Z,100.00
2022-10-19T02:56:57.268Z,100.00
2022-10-19T02:59:25.959Z,100.00
2022-10-19T03:01:53.669Z,100.00
2022-10-19T03:04:21.218Z,100.00
2022-10-19T03:06:50.101Z,100.00
2022-10-19T03:09:17.769Z,100.00
2022-10-19T03:11:45.357Z,100.00
2022-10-19T03:14:12.882Z,100.00
2022-10-19T03:16:40.834Z,100.00
2022-10-19T03:19:08.529Z,100.00
2022-10-19T03:21:36.303Z,100.00
2022-10-19T03:24:05.681Z,100.00
2022-10-19T03:26:33.234Z,100.00
2022-10-19T03:29:01.126Z,100.00
2022-10-19T03:31:28.673Z,100.00
2022-10-19T03:33:56.247Z,100.00
2022-10-19T03:36:25.609Z,100.00
2022-10-19T03:38:53.676Z,100.00
2022-10-19T03:41:24.294Z,100.00
2022-10-19T03:43:52.233Z,100.00
2022-10-19T03:46:20.363Z,100.00
2022-10-19T03:48:48.227Z,100.00
2022-10-19T03:51:18.334Z,100.00
2022-10-19T03:53:46.476Z,100.00
2022-10-19T03:56:16.352Z,100.00
2022-10-19T03:58:47.148Z,100.00
2022-10-19T04:01:17.228Z,100.00
2022-10-19T04:03:45.269Z,100.00
2022-10-19T04:06:18.279Z,100.00
2022-10-19T04:08:49.702Z,100.00
2022-10-19T04:11:19.113Z,100.00
2022-10-19T04:13:50.460Z,100.00
2022-10-19T04:16:18.895Z,100.00
2022-10-19T04:18:46.608Z,100.00
2022-10-19T04:21:22.767Z,100.00
2022-10-19T04:23:51.600Z,100.00
2022-10-19T04:26:19.585Z,100.00
2022-10-19T04:28:47.408Z,100.00
2022-10-19T04:31:16.361Z,100.00
2022-10-19T04:33:44.172Z,100.00
2022-10-19T04:36:13.129Z,100.00
2022-10-19T04:38:40.769Z,100.00
2022-10-19T04:41:10.494Z,100.00
2022-10-19T04:43:38.718Z,100.00
2022-10-19T04:46:08.254Z,100.00
2022-10-19T04:48:38.915Z,100.00
2022-10-19T04:51:07.479Z,100.00
2022-10-19T04:53:35.945Z,100.00
2022-10-19T04:56:06.823Z,100.00
2022-10-19T04:58:34.449Z,100.00
2022-10-19T05:01:08.759Z,100.00
2022-10-19T05:03:38.017Z,100.00
2022-10-19T05:06:06.027Z,100.00
2022-10-19T05:08:33.693Z,100.00
2022-10-19T05:11:06.377Z,100.00
2022-10-19T05:13:34.613Z,100.00
2022-10-19T05:16:04.331Z,100.00
2022-10-19T05:18:31.906Z,100.00
2022-10-19T05:21:06.167Z,100.00
2022-10-19T05:23:33.967Z,100.00
2022-10-19T05:26:03.367Z,100.00
2022-10-19T05:28:30.980Z,100.00
2022-10-19T05:31:06.303Z,100.00
2022-10-19T05:33:33.943Z,100.00
2022-10-19T05:36:10.154Z,100.00
2022-10-19T05:38:39.197Z,100.00
2022-10-19T05:41:06.914Z,100.00
2022-10-19T05:43:34.560Z,100.00
2022-10-19T05:46:05.366Z,100.00
2022-10-19T05:48:33.959Z,100.00
2022-10-19T05:51:02.174Z,100.00
2022-10-19T05:53:30.378Z,100.00
2022-10-19T05:55:59.322Z,100.00
2022-10-19T05:58:27.289Z,100.00
2022-10-19T06:00:56.521Z,100.00
2022-10-19T06:03:24.781Z,100.00
2022-10-19T06:05:53.102Z,100.00
2022-10-19T06:08:22.062Z,100.00
2022-10-19T06:10:50.880Z,100.00
2022-10-19T06:13:20.890Z,100.00
2022-10-19T06:15:52.047Z,100.00
2022-10-19T06:18:19.594Z,100.00
2022-10-19T06:20:47.253Z,100.00
2022-10-19T06:23:14.801Z,100.00
2022-10-19T06:25:42.597Z,100.00
2022-10-19T06:28:10.389Z,100.00
2022-10-19T06:30:41.039Z,100.00
2022-10-19T06:33:08.831Z,100.00
2022-10-19T06:35:36.531Z,100.00
2022-10-19T06:38:04.078Z,100.00
2022-10-19T06:40:31.820Z,100.00
2022-10-19T06:42:59.581Z,100.00
2022-10-19T06:45:27.258Z,100.00
2022-10-19T06:47:56.125Z,100.00
2022-10-19T06:50:23.685Z,100.00
2022-10-19T06:52:51.343Z,100.00
2022-10-19T06:55:18.898Z,100.00
2022-10-19T06:57:46.770Z,100.00
2022-10-19T07:00:15.418Z,100.00
2022-10-19T07:02:43.105Z,100.00
2022-10-19T07:05:12.075Z,100.00
2022-10-19T07:07:39.630Z,100.00
2022-10-19T07:10:07.965Z,100.00
2022-10-19T07:12:35.505Z,100.00
2022-10-19T07:15:03.073Z,100.00
2022-10-19T07:17:30.842Z,100.00
2022-10-19T07:19:58.367Z,100.00
2022-10-19T07:22:28.389Z,100.00
2022-10-19T07:24:56.009Z,100.00
2022-10-19T07:27:23.622Z,100.00
2022-10-19T07:29:51.214Z,100.00
2022-10-19T07:32:18.744Z,100.00
2022-10-19T07:34:46.298Z,100.00
2022-10-19T07:37:13.821Z,100.00
2022-10-19T07:39:42.719Z,100.00
2022-10-19T07:42:10.636Z,100.00
2022-10-19T07:44:38.164Z,100.00
2022-10-19T07:47:06.129Z,100.00
2022-10-19T07:49:33.654Z,100.00
2022-10-19T07:52:01.182Z,100.00
2022-10-19T07:54:28.815Z,100.00
2022-10-19T07:56:57.722Z,100.00
2022-10-19T07:59:25.265Z,100.00
2022-10-19T08:01:54.305Z,100.00
2022-10-19T08:07:10.116Z,100.00
2022-10-19T08:09:52.851Z,100.00
2022-10-19T08:12:21.976Z,100.00
2022-10-19T08:14:49.500Z,100.00
2022-10-19T08:17:17.679Z,100.00
2022-10-19T08:19:45.558Z,100.00
2022-10-19T08:22:13.552Z,100.00
2022-10-19T08:24:41.079Z,100.00
2022-10-19T08:27:08.725Z,100.00
2022-10-19T08:29:37.622Z,100.00
2022-10-19T08:32:05.389Z,100.00
2022-10-19T08:34:33.233Z,100.00
2022-10-19T08:37:10.094Z,100.00
2022-10-19T08:39:47.613Z,100.00
2022-10-19T08:42:19.599Z,100.00
2022-10-19T08:45:04.327Z,100.00
2022-10-19T08:47:46.730Z,100.00
2022-10-19T08:50:21.157Z,100.00
2022-10-19T08:52:54.449Z,100.00
2022-10-19T08:55:31.854Z,100.00
2022-10-19T08:58:07.716Z,100.00
2022-10-19T09:00:43.305Z,100.00
2022-10-19T09:03:32.121Z,100.00
2022-10-19T09:06:20.049Z,100.00
2022-10-19T09:08:48.433Z,100.00
2022-10-19T09:11:19.121Z,100.00
2022-10-19T09:14:05.819Z,100.00
2022-10-19T09:16:35.808Z,100.00
2022-10-19T09:19:04.366Z,100.00
2022-10-19T09:21:47.097Z,100.00
2022-10-19T09:24:27.826Z,100.00
2022-10-19T09:26:57.269Z,100.00
2022-10-19T09:29:30.599Z,100.00
2022-10-19T09:32:02.318Z,100.00
2022-10-19T09:34:34.807Z,100.00
2022-10-19T09:37:02.726Z,100.00
2022-10-19T09:39:31.609Z,100.00
2022-10-19T09:42:00.933Z,100.00
2022-10-19T09:44:28.684Z,100.00
2022-10-19T09:47:05.267Z,100.00
2022-10-19T09:49:41.811Z,100.00
2022-10-19T09:52:25.037Z,100.00
2022-10-19T09:55:01.802Z,100.00
2022-10-19T09:57:30.230Z,99.69
2022-10-19T09:59:57.849Z,96.98
2022-10-19T10:02:32.453Z,94.59
2022-10-19T10:05:07.746Z,91.28
2022-10-19T10:07:38.984Z,92.99
2022-10-19T10:10:24.546Z,92.57
2022-10-19T10:12:54.698Z,95.05
2022-10-19T10:15:25.439Z,94.90
2022-10-19T10:17:56.648Z,93.18
2022-10-19T10:20:28.276Z,89.52
2022-10-19T10:22:59.246Z,87.04
2022-10-19T10:25:30.410Z,86.50
2022-10-19T10:28:01.802Z,88.01
2022-10-19T10:30:35.027Z,87.55
2022-10-19T10:33:13.327Z,86.05
2022-10-19T10:35:53.578Z,85.28
2022-10-19T10:38:26.087Z,83.53
2022-10-19T10:40:57.168Z,82.91
2022-10-19T10:43:40.082Z,81.11
2022-10-19T10:46:14.191Z,82.33
2022-10-19T10:48:48.462Z,80.45
2022-10-19T10:51:22.890Z,76.95
2022-10-19T10:53:50.523Z,70.45
2022-10-19T10:56:28.097Z,68.33
2022-10-19T10:59:01.491Z,70.92
2022-10-19T11:01:32.586Z,68.88
2022-10-19T11:04:08.171Z,68.37
2022-10-19T11:06:44.835Z,67.61
2022-10-19T11:09:19.892Z,66.94
2022-10-19T11:11:50.601Z,66.03
2022-10-19T11:14:31.353Z,64.37
2022-10-19T11:17:03.566Z,66.79
2022-10-19T11:19:36.501Z,66.48
2022-10-19T11:22:16.086Z,65.35
2022-10-19T11:25:02.611Z,62.67
2022-10-19T11:27:44.157Z,61.55
2022-10-19T11:30:14.872Z,61.85
2022-10-19T11:32:54.489Z,61.14
2022-10-19T11:35:45.206Z,61.38
2022-10-19T11:38:30.241Z,60.52
2022-10-19T11:41:23.106Z,62.86
2022-10-19T11:44:07.588Z,61.63
2022-10-19T11:46:45.603Z,61.81
2022-10-19T11:49:25.743Z,61.35
2022-10-19T11:52:02.495Z,61.13
2022-10-19T11:54:44.021Z,63.00
2022-10-19T11:57:17.010Z,64.38
2022-10-19T12:00:03.847Z,63.65
2022-10-19T12:03:11.387Z,63.52
2022-10-19T12:05:49.278Z,66.18
2022-10-19T12:08:32.661Z,64.82
2022-10-19T12:11:09.753Z,64.19
2022-10-19T12:13:41.635Z,65.60
2022-10-19T12:16:11.946Z,63.11
2022-10-19T12:18:44.583Z,63.88
2022-10-19T12:21:20.315Z,63.46
2022-10-19T12:23:49.803Z,58.85
2022-10-19T12:26:19.895Z,59.43
2022-10-19T12:28:49.945Z,57.87
2022-10-19T12:31:19.189Z,54.83
2022-10-19T12:33:54.110Z,55.09
2022-10-19T12:36:32.737Z,54.53
2022-10-19T12:39:12.297Z,53.34
2022-10-19T12:41:46.402Z,57.45
2022-10-19T12:44:39.160Z,54.25
2022-10-19T12:47:12.454Z,54.44
2022-10-19T12:49:49.098Z,53.40
2022-10-19T12:52:36.653Z,55.77
2022-10-19T12:55:27.018Z,53.21
2022-10-19T12:58:01.131Z,52.65
2022-10-19T13:00:32.573Z,51.69
2022-10-19T13:03:04.426Z,53.97
2022-10-19T13:05:33.870Z,55.57
2022-10-19T13:08:03.182Z,55.63
2022-10-19T13:10:33.098Z,57.95
2022-10-19T13:13:01.097Z,57.82
2022-10-19T13:15:52.329Z,56.87
2022-10-19T13:19:02.270Z,58.22
2022-10-19T13:21:54.147Z,59.10
2022-10-19T13:24:31.651Z,60.35
2022-10-19T13:27:39.475Z,59.86
2022-10-19T13:30:47.406Z,61.35
2022-10-19T13:33:45.216Z,61.00
2022-10-19T13:36:13.862Z,62.31
2022-10-19T13:38:42.845Z,62.71
2022-10-19T13:41:14.094Z,63.28
2022-10-19T13:43:52.467Z,62.01
2022-10-19T13:46:23.994Z,63.27
2022-10-19T13:49:29.062Z,61.95
2022-10-19T13:52:13.746Z,59.60
2022-10-19T13:54:59.218Z,58.61
2022-10-19T13:57:43.858Z,58.72
2022-10-19T14:00:19.682Z,59.03
2022-10-19T14:03:05.527Z,58.98
2022-10-19T14:05:52.664Z,57.99
2022-10-19T14:08:46.897Z,57.01
2022-10-19T14:11:16.558Z,56.75
2022-10-19T14:13:44.654Z,56.46
2022-10-19T14:16:20.757Z,57.20
2022-10-19T14:18:57.095Z,56.16
2022-10-19T14:21:36.832Z,55.98
2022-10-19T14:24:20.882Z,57.37
2022-10-19T14:26:48.554Z,58.53
2022-10-19T14:29:16.086Z,55.66
2022-10-19T14:31:43.658Z,55.01
2022-10-19T14:34:14.890Z,56.50
2022-10-19T14:36:47.210Z,57.13
2022-10-19T14:39:28.298Z,57.07
2022-10-19T14:41:57.187Z,58.30
2022-10-19T14:44:37.270Z,57.07
2022-10-19T14:47:17.194Z,57.88
2022-10-19T14:49:46.691Z,55.77
2022-10-19T14:52:20.272Z,54.46
2022-10-19T14:54:50.311Z,54.10
2022-10-19T14:57:24.762Z,54.66
2022-10-19T14:59:54.822Z,55.69
2022-10-19T15:02:27.161Z,56.48
2022-10-19T15:04:58.754Z,56.77
2022-10-19T15:07:31.439Z,56.54
2022-10-19T15:10:02.034Z,58.04
2022-10-19T15:12:31.558Z,58.95
2022-10-19T15:14:59.286Z,60.25
2022-10-19T15:17:29.524Z,60.51
2022-10-19T15:20:01.233Z,61.65
2022-10-19T15:22:39.530Z,62.22
2022-10-19T15:25:33.270Z,63.32
2022-10-19T15:28:21.991Z,64.22
2022-10-19T15:31:00.199Z,65.20
2022-10-19T15:33:27.805Z,66.20
2022-10-19T15:36:07.215Z,67.33
2022-10-19T15:38:35.659Z,67.38
2022-10-19T15:41:04.970Z,68.08
2022-10-19T15:43:44.916Z,68.97
2022-10-19T15:46:28.306Z,69.33
2022-10-19T15:48:57.490Z,70.94
2022-10-19T15:51:50.606Z,71.40
2022-10-19T15:54:19.472Z,72.56
2022-10-19T15:56:51.340Z,73.19
2022-10-19T15:59:20.847Z,73.89
2022-10-19T16:01:55.059Z,75.71
2022-10-19T16:04:23.537Z,77.04
2022-10-19T16:06:52.789Z,77.86
2022-10-19T16:09:22.480Z,78.60
2022-10-19T16:11:56.197Z,79.74
2022-10-19T16:14:23.836Z,80.67
2022-10-19T16:16:51.443Z,81.58
2022-10-19T16:19:19.004Z,82.29
2022-10-19T16:21:50.118Z,83.00
2022-10-19T16:24:19.705Z,83.50
2022-10-19T16:26:47.245Z,84.04
2022-10-19T16:29:14.915Z,84.81
2022-10-19T16:31:42.518Z,85.69
2022-10-19T16:34:10.147Z,86.38
2022-10-19T16:36:37.741Z,87.25
2022-10-19T16:39:05.361Z,88.62
2022-10-19T16:41:34.358Z,89.40
2022-10-19T16:44:01.936Z,90.12
2022-10-19T16:46:29.710Z,90.75
2022-10-19T16:48:57.314Z,91.58
2022-10-19T16:51:32.382Z,91.93
2022-10-19T16:53:59.967Z,92.75
2022-10-19T16:56:30.212Z,93.09
2022-10-19T16:59:01.763Z,93.71
2022-10-19T17:01:30.458Z,93.91
2022-10-19T17:03:58.799Z,94.71
2022-10-19T17:06:28.209Z,95.01
2022-10-19T17:11:45.026Z,95.96
2022-10-19T17:14:14.027Z,96.59
2022-10-19T17:16:42.001Z,97.19
2022-10-19T17:19:11.451Z,96.83
2022-10-19T17:21:42.014Z,97.30
2022-10-19T17:24:20.133Z,97.74
2022-10-19T17:26:50.668Z,97.53
2022-10-19T17:29:20.285Z,97.90
2022-10-19T17:31:48.374Z,98.18
2022-10-19T17:34:16.701Z,98.58
2022-10-19T17:36:45.756Z,98.23
2022-10-19T17:39:15.182Z,98.78
2022-10-19T17:41:43.062Z,99.32
2022-10-19T17:44:10.641Z,99.12
2022-10-19T17:46:39.573Z,99.40
2022-10-19T17:49:07.195Z,99.57
2022-10-19T17:51:36.511Z,99.68
2022-10-19T17:54:07.530Z,99.86
2022-10-19T17:56:35.605Z,100.00
2022-10-19T17:59:03.412Z,100.00
2022-10-19T18:01:31.662Z,100.00
2022-10-19T18:04:00.602Z,100.00
2022-10-19T18:06:29.535Z,100.00
2022-10-19T18:08:58.409Z,100.00
2022-10-19T18:11:27.986Z,100.00
2022-10-19T18:13:57.334Z,100.00
2022-10-19T18:16:26.845Z,100.00
2022-10-19T18:18:56.460Z,100.00
2022-10-19T18:21:27.688Z,100.00
2022-10-19T18:23:57.771Z,100.00
2022-10-19T18:26:28.006Z,100.00
2022-10-19T18:28:56.424Z,100.00
2022-10-19T18:31:28.567Z,100.00
2022-10-19T18:33:57.571Z,100.00
2022-10-19T18:36:26.600Z,100.00
2022-10-19T18:38:57.149Z,100.00
2022-10-19T18:41:24.794Z,100.00
2022-10-19T18:43:53.670Z,100.00
2022-10-19T18:46:23.207Z,100.00
2022-10-19T18:48:50.853Z,100.00
2022-10-19T18:51:19.893Z,100.00
2022-10-19T18:53:48.880Z,100.00
2022-10-19T18:56:18.567Z,100.00
2022-10-19T18:58:46.404Z,100.00
2022-10-19T19:01:15.724Z,100.00
2022-10-19T19:03:44.789Z,100.00
2022-10-19T19:06:14.290Z,100.00
2022-10-19T19:11:12.928Z,100.00
2022-10-19T19:13:41.565Z,100.00
2022-10-19T19:16:09.861Z,100.00
2022-10-19T19:18:37.701Z,100.00
2022-10-19T19:21:06.256Z,100.00
2022-10-19T19:23:34.294Z,100.00
2022-10-19T19:26:04.058Z,100.00
2022-10-19T19:28:35.442Z,100.00
2022-10-19T19:31:06.846Z,100.00
2022-10-19T19:33:34.726Z,100.00
2022-10-19T19:36:06.136Z,100.00
2022-10-19T19:38:34.435Z,100.00
2022-10-19T19:41:04.910Z,100.00
2022-10-19T19:43:35.825Z,100.00
2022-10-19T19:46:08.874Z,100.00
2022-10-19T19:48:37.036Z,100.00
2022-10-19T19:51:04.919Z,100.00
2022-10-19T19:53:32.447Z,100.00
2022-10-19T19:55:59.998Z,100.00
2022-10-19T19:58:27.516Z,100.00
2022-10-19T20:00:56.413Z,100.00
2022-10-19T20:03:23.938Z,100.00
2022-10-19T20:05:51.514Z,100.00
2022-10-19T20:08:19.146Z,100.00
2022-10-19T20:10:46.678Z,100.00
2022-10-19T20:13:14.231Z,100.00
2022-10-19T20:15:41.754Z,100.00
2022-10-19T20:18:10.645Z,100.00
2022-10-19T20:20:38.241Z,100.00
2022-10-19T20:23:05.798Z,100.00
2022-10-19T20:25:37.322Z,100.00
2022-10-19T20:28:05.549Z,100.00
2022-10-19T20:30:33.191Z,100.00
2022-10-19T20:33:00.848Z,100.00
2022-10-19T20:35:29.717Z,100.00
2022-10-19T20:37:58.483Z,100.00
2022-10-19T20:40:26.013Z,100.00
2022-10-19T20:42:53.607Z,100.00
2022-10-19T20:45:21.140Z,100.00
2022-10-19T20:47:48.650Z,100.00
2022-10-19T20:50:19.267Z,100.00
2022-10-19T20:52:50.700Z,100.00
2022-10-19T20:55:20.244Z,100.00
2022-10-19T20:57:47.805Z,100.00
2022-10-19T21:00:16.301Z,100.00
2022-10-19T21:02:44.941Z,100.00
2022-10-19T21:05:13.128Z,100.00
2022-10-19T21:07:40.650Z,100.00
2022-10-19T21:10:10.236Z,100.00
2022-10-19T21:12:38.117Z,100.00
2022-10-19T21:15:06.242Z,100.00
2022-10-19T21:17:33.769Z,100.00
2022-10-19T21:20:01.354Z,100.00
2022-10-19T21:22:28.950Z,100.00
2022-10-19T21:24:56.484Z,100.00
2022-10-19T21:27:25.339Z,100.00
2022-10-19T21:29:52.866Z,100.00
2022-10-19T21:32:20.941Z,100.00
2022-10-19T21:34:48.457Z,100.00
2022-10-19T21:37:15.988Z,100.00
2022-10-19T21:39:43.522Z,100.00
2022-10-19T21:42:11.049Z,100.00
2022-10-19T21:44:39.929Z,100.00
2022-10-19T21:47:07.884Z,100.00
2022-10-19T21:49:35.410Z,100.00
2022-10-19T21:52:02.965Z,100.00
2022-10-19T21:54:30.482Z,100.00
2022-10-19T21:57:01.268Z,100.00
2022-10-19T21:59:29.130Z,100.00
2022-10-19T22:01:58.257Z,100.00
2022-10-19T22:04:25.803Z,100.00
2022-10-19T22:06:53.641Z,100.00
2022-10-19T22:09:24.039Z,100.00
2022-10-19T22:11:51.851Z,100.00
2022-10-19T22:14:19.412Z,100.00
2022-10-19T22:16:47.022Z,100.00
2022-10-19T22:19:15.964Z,100.00
2022-10-19T22:21:43.529Z,100.00
2022-10-19T22:24:13.854Z,100.00
2022-10-19T22:26:44.718Z,100.00
2022-10-19T22:29:12.827Z,100.00
2022-10-19T22:31:40.522Z,100.00
2022-10-19T22:34:10.357Z,100.00
2022-10-19T22:36:39.301Z,100.00
2022-10-19T22:39:07.797Z,100.00
2022-10-19T22:41:35.444Z,100.00
2022-10-19T22:44:03.142Z,100.00
2022-10-19T22:46:30.713Z,100.00
2022-10-19T22:48:58.636Z,100.00
2022-10-19T22:51:26.347Z,100.00
2022-10-19T22:53:55.333Z,100.00
2022-10-19T22:56:22.846Z,100.00
2022-10-19T22:58:50.409Z,100.00
2022-10-19T23:01:18.113Z,100.00
2022-10-19T23:03:45.786Z,100.00
2022-10-19T23:06:15.419Z,100.00
2022-10-19T23:08:43.424Z,100.00
2022-10-19T23:11:12.743Z,100.00
2022-10-19T23:13:40.658Z,100.00
2022-10-19T23:16:09.425Z,100.00
2022-10-19T23:18:39.789Z,100.00
2022-10-19T23:21:09.313Z,100.00
2022-10-19T23:23:37.046Z,100.00
2022-10-19T23:26:07.834Z,100.00
2022-10-19T23:28:38.040Z,100.00
2022-10-19T23:31:07.953Z,100.00
2022-10-19T23:33:36.170Z,100.00
2022-10-19T23:36:06.391Z,100.00
2022-10-19T23:38:34.109Z,100.00
2022-10-19T23:41:01.639Z,100.00
2022-10-19T23:43:29.239Z,100.00
2022-10-19T23:45:58.149Z,100.00
2022-10-19T23:48:26.081Z,100.00
2022-10-19T23:50:58.977Z,100.00
2022-10-19T23:53:27.708Z,100.00
2022-10-19T23:55:59.486Z,100.00
2022-10-19T23:58:27.549Z,100.00
